Decoded Metar for LROP (BUCHAREST in ROMANIA) (IATA:OTP) | Meteo·Mobile Aviation Weather
aviador You're here:

LROP Decoded Metar

BUCHAREST in ROMANIA
Report Time2018-12-11 04:30:00
UTC Time2018-12-11 04:40:32
Flight Rules ifr IFR
WindVRB at 02 kt
Visibility6000 m
Phenomena:Light Rain
Mist
Clouds:Broken 005 Hf
Few 007 Hf
Ceiling500 ft
Temp01°C (ISA -13)
Dew Point01°C (100% RH)
AAT-1.6°C
QNH1009 hPa
Density Alt-1,093 ft
Elevation312 ft
Report Wrong Elevation
Raw Report
METAR LROP 110430Z VRB02KT 6000 FEW007 01/01 Q1009 R88/19//95 TEMPO
5000 -RA BR BKN005 BKN040=

Extra information for LROP:More info

Metar Taf Metar & Taf Last 4 Metars F.Rules Stats Wind Profile Meteogram Temp Stats Airport Information Weather charts Add Link Nearby VenuesMetar ALERT Operation Metar Decoded Social comments